CYMO

Moosonee Airport

Airport
ICAO code
CYMO
IATA Code
YMO
Summary
ICAO Region
NAM
ICAO Territory
Location

Moosonee, Ontario

Serving
St James Bay
Elevation
30 ft
Coordinates
51° 17' 24" N , 80° 36' 56" W
KCC
Metar
Observation
CYMO 280500Z AUTO 32007KT 9SM -SN FEW015 BKN032 OVC060 M04/M05 A2981 RMK SLP096
Station
Moosonee, Ont.
Date/Time
2022-11-28 05:00:00
Wind direction
320°
Wind speed
07 kts
Lowest cloud amount
few clouds
Temperature
-4°C
Dew point
-5°C
Humidity
92%
Weather condition
light snow

Description

Regional airport located 2 nm northeast of Moosonee, Ontario, Canada.

Climatology

Subarctic climate (Köppen climate classification Dfc) - long, usually very cold winters, and short, cool to mild summers.

Runways

Designator Length Width Surface Rops
14/32 1067 30 COM No/No
6/24 1219 30 ASP No/No

Airport map

Aerial View

SKYbrary Partners:

Safety knowledge contributed by: